Time;durP1;ratioP1;P1;durP2;ratioP2;P2;SDS_P1;SDS_P2;PMS_P1;PMS_P2;Temp;Humidity;BMP_temperature;BMP_pressure;BME280_temperature;BME280_humidity;BME280_pressure;Samples;Min_cycle;Max_cycle;Signal;HPM_P1;HPM_P2
2022/01/02 00:00:02;;;;;;;;;;;;;;;;;;5026303;28;19922;-94
2022/01/02 00:02:28;;;;;;;;;;;;;;;;;;5026577;28;19944;-94
2022/01/02 00:04:55;;;;;;;;;;;;;;;;;;5026313;28;19921;-94
2022/01/02 00:07:21;;;;;;;;;;;;;;;;;;5026482;28;19921;-95
2022/01/02 00:09:47;;;;;;;;;;;;;;;;;;5026652;28;19922;-93
2022/01/02 00:12:14;;;;;;;;;;;;;;;;;;5026225;28;19992;-93
2022/01/02 00:14:41;;;;;;;;;;;;;;;;;;5026132;28;19960;-94
2022/01/02 00:17:07;;;;;;;;;;;;;;;;;;5026328;28;19932;-94
2022/01/02 00:19:33;;;;;;;;;;;;;;;;;;5025907;28;20514;-94
2022/01/02 00:22:01;;;;;;;;;;;;;;;;;;5026225;28;19991;-94
2022/01/02 00:24:27;;;;;;;;;;;;;;;;;;5025801;28;19922;-95
2022/01/02 00:26:54;;;;;;;;;;;;;;;;;;5024352;28;19921;-94
2022/01/02 00:29:20;;;;;;;;;;;;;;;;;;5025203;28;19944;-93
2022/01/02 00:31:46;;;;;;;;;;;;;;;;;;5025375;28;20519;-95
2022/01/02 00:34:12;;;;;;;;;;;;;;;;;;5025539;28;20348;-94
2022/01/02 00:36:39;;;;;;;;;;;;;;;;;;5026150;28;19925;-94
2022/01/02 00:39:06;;;;;;;;;;;;;;;;;;5022100;28;19922;-95
2022/01/02 00:41:32;;;;;;;;;;;;;;;;;;5024437;28;19921;-95
2022/01/02 00:43:58;;;;;;;;;;;;;;;;;;5025576;28;19925;-94
2022/01/02 00:46:25;;;;;;;;;;;;;;;;;;5026025;28;19922;-93
2022/01/02 00:48:51;;;;;;;;;;;;;;;;;;5025120;28;19953;-94
2022/01/02 00:51:17;;;;;;;;;;;;;;;;;;5023812;28;19921;-94
2022/01/02 00:53:43;;;;;;;;;;;;;;;;;;5024293;28;19921;-95
2022/01/02 00:56:09;;;;;;;;;;;;;;;;;;5024136;28;19945;-95
2022/01/02 00:58:36;;;;;;;;;;;;;;;;;;5024905;28;19944;-94
2022/01/02 01:01:02;;;;;;;;;;;;;;;;;;5024528;28;19967;-94
2022/01/02 01:03:28;;;;;;;;;;;;;;;;;;5025198;28;19925;-96
2022/01/02 01:05:55;;;;;;;;;;;;;;;;;;5023143;28;19921;-94
2022/01/02 01:08:22;;;;;;;;;;;;;;;;;;5024063;28;19922;-94
2022/01/02 01:10:48;;;;;;;;;;;;;;;;;;5025551;28;19976;-93
2022/01/02 01:13:14;;;;;;;;;;;;;;;;;;5025033;28;19921;-95
2022/01/02 01:15:41;;;;;;;;;;;;;;;;;;5025582;28;19975;-94
2022/01/02 01:18:08;;;;;;;;;;;;;;;;;;5025548;28;19922;-93
2022/01/02 01:20:35;;;;;;;;;;;;;;;;;;5023227;28;19921;-94
2022/01/02 01:23:01;;;;;;;;;;;;;;;;;;5023765;28;19922;-95
2022/01/02 01:25:27;;;;;;;;;;;;;;;;;;5022977;28;19925;-94
2022/01/02 01:27:54;;;;;;;;;;;;;;;;;;5023444;28;19921;-94
2022/01/02 01:30:20;;;;;;;;;;;;;;;;;;5024792;28;19975;-94
2022/01/02 01:32:46;;;;;;;;;;;;;;;;;;5024846;28;19945;-93
2022/01/02 01:35:12;;;;;;;;;;;;;;;;;;5024696;28;19944;-95
2022/01/02 01:37:39;;;;;;;;;;;;;;;;;;5024751;28;19925;-94
2022/01/02 01:40:05;;;;;;;;;;;;;;;;;;5023313;28;19921;-94
2022/01/02 01:42:36;;;;;;;;;;;;;;;;;;5023001;28;19926;-94
2022/01/02 01:47:45;;;;;;;;;;;;;;;;;;5024028;28;19984;-94
2022/01/02 01:50:11;;;;;;;;;;;;;;;;;;5023413;28;19975;-95
2022/01/02 01:52:38;;;;;;;;;;;;;;;;;;5024441;28;19968;-95
2022/01/02 01:55:04;;;;;;;;;;;;;;;;;;5023425;28;19984;-94
2022/01/02 01:57:30;;;;;;;;;;;;;;;;;;5023133;28;19926;-94
2022/01/02 01:59:56;;;;;;;;;;;;;;;;;;5022395;28;19921;-95
2022/01/02 02:02:23;;;;;;;;;;;;;;;;;;5022797;28;19967;-94
2022/01/02 02:04:49;;;;;;;;;;;;;;;;;;5022808;28;19975;-95
2022/01/02 02:07:16;;;;;;;;;;;;;;;;;;5023025;28;19944;-94
2022/01/02 02:09:59;;;;;;;;;;;;;;;;;;5024005;28;19929;-95
2022/01/02 02:12:25;;;;;;;;;;;;;;;;;;5024167;28;19921;-94
2022/01/02 02:14:51;;;;;;;;;;;;;;;;;;5023972;28;19921;-95
2022/01/02 02:17:17;;;;;;;;;;;;;;;;;;5024546;28;19921;-94
2022/01/02 02:19:45;;;;;;;;;;;;;;;;;;5022611;28;19922;-94
2022/01/02 02:22:12;;;;;;;;;;;;;;;;;;5021536;28;19921;-92
2022/01/02 02:24:38;;;;;;;;;;;;;;;;;;5024189;28;19968;-95
2022/01/02 02:27:05;;;;;;;;;;;;;;;;;;5023894;28;19925;-95
2022/01/02 02:29:31;;;;;;;;;;;;;;;;;;5023893;28;19929;-93
2022/01/02 02:31:57;;;;;;;;;;;;;;;;;;5022850;28;19921;-94
2022/01/02 02:34:23;;;;;;;;;;;;;;;;;;5023421;28;19980;-94
2022/01/02 02:36:49;;;;;;;;;;;;;;;;;;5023411;28;19929;-94
2022/01/02 02:39:16;;;;;;;;;;;;;;;;;;5023995;28;19921;-95
2022/01/02 02:41:43;;;;;;;;;;;;;;;;;;5024114;28;19972;-96
2022/01/02 02:44:19;;;;;;;;;;;;;;;;;;5023565;28;19992;-93
2022/01/02 02:49:29;;;;;;;;;;;;;;;;;;5023885;28;19916;-94
2022/01/02 02:52:00;;;;;;;;;;;;;;;;;;5024087;28;20349;-94
2022/01/02 02:54:27;;;;;;;;;;;;;;;;;;5023776;28;20370;-95
2022/01/02 02:56:58;;;;;;;;;;;;;;;;;;5023148;28;19947;-93
2022/01/02 02:59:25;;;;;;;;;;;;;;;;;;5022963;28;19921;-94
2022/01/02 03:01:51;;;;;;;;;;;;;;;;;;5022122;28;19925;-94
2022/01/02 03:04:17;;;;;;;;;;;;;;;;;;5022722;28;19921;-94
2022/01/02 03:06:43;;;;;;;;;;;;;;;;;;5023337;28;19925;-94
2022/01/02 03:09:10;;;;;;;;;;;;;;;;;;5023615;28;20007;-94
2022/01/02 03:11:36;;;;;;;;;;;;;;;;;;5023410;28;19992;-94
2022/01/02 03:14:03;;;;;;;;;;;;;;;;;;5023024;28;19921;-96
2022/01/02 03:16:29;;;;;;;;;;;;;;;;;;5021944;28;20432;-95
2022/01/02 03:18:56;;;;;;;;;;;;;;;;;;5022592;28;20468;-95
2022/01/02 03:21:22;;;;;;;;;;;;;;;;;;5022161;28;19944;-94
2022/01/02 03:23:49;;;;;;;;;;;;;;;;;;5022840;28;19955;-94
2022/01/02 03:26:15;;;;;;;;;;;;;;;;;;5022636;28;19926;-93
2022/01/02 03:28:41;;;;;;;;;;;;;;;;;;5023094;28;20049;-95
2022/01/02 03:31:07;;;;;;;;;;;;;;;;;;5022973;28;19922;-94
2022/01/02 03:33:34;;;;;;;;;;;;;;;;;;5025056;28;19925;-93
2022/01/02 03:36:00;;;;;;;;;;;;;;;;;;5025567;28;19922;-95
2022/01/02 03:38:26;;;;;;;;;;;;;;;;;;5025785;28;19945;-95
2022/01/02 03:40:52;;;;;;;;;;;;;;;;;;5024872;28;19921;-94
2022/01/02 03:43:19;;;;;;;;;;;;;;;;;;5025547;28;19921;-93
2022/01/02 03:45:45;;;;;;;;;;;;;;;;;;5026164;28;19921;-94
2022/01/02 03:48:11;;;;;;;;;;;;;;;;;;5026403;28;19921;-95
2022/01/02 03:50:37;;;;;;;;;;;;;;;;;;5024065;28;19926;-93
2022/01/02 03:53:03;;;;;;;;;;;;;;;;;;5025067;28;19944;-94
2022/01/02 03:55:30;;;;;;;;;;;;;;;;;;5025629;28;20417;-94
2022/01/02 03:57:56;;;;;;;;;;;;;;;;;;5026786;28;19951;-94
2022/01/02 04:00:22;;;;;;;;;;;;;;;;;;5026512;28;19925;-94
2022/01/02 04:02:49;;;;;;;;;;;;;;;;;;5027106;28;19975;-94
2022/01/02 04:05:15;;;;;;;;;;;;;;;;;;5023860;28;19921;-95
2022/01/02 04:07:41;;;;;;;;;;;;;;;;;;5024378;28;19921;-94
2022/01/02 04:10:07;;;;;;;;;;;;;;;;;;5023749;28;19921;-93
2022/01/02 04:12:34;;;;;;;;;;;;;;;;;;5024081;28;19921;-94
2022/01/02 04:15:00;;;;;;;;;;;;;;;;;;5026449;28;19921;-93
2022/01/02 04:17:26;;;;;;;;;;;;;;;;;;5025997;28;19932;-94
2022/01/02 04:19:52;;;;;;;;;;;;;;;;;;5026181;28;19968;-94
2022/01/02 04:22:19;;;;;;;;;;;;;;;;;;5026272;28;19976;-95
2022/01/02 04:24:45;;;;;;;;;;;;;;;;;;5026274;28;19925;-93
2022/01/02 04:27:11;;;;;;;;;;;;;;;;;;5026052;28;20009;-94
2022/01/02 04:29:38;;;;;;;;;;;;;;;;;;5024400;28;19921;-94
2022/01/02 04:32:04;;;;;;;;;;;;;;;;;;5023554;28;19926;-94
2022/01/02 04:34:30;;;;;;;;;;;;;;;;;;5024752;28;20440;-94
2022/01/02 04:36:56;;;;;;;;;;;;;;;;;;5025373;28;19922;-94
2022/01/02 04:39:22;;;;;;;;;;;;;;;;;;5025537;28;19971;-95
2022/01/02 04:41:49;;;;;;;;;;;;;;;;;;5025412;28;19984;-94
2022/01/02 04:44:15;;;;;;;;;;;;;;;;;;5025057;28;19925;-95
2022/01/02 04:46:41;;;;;;;;;;;;;;;;;;5025021;28;19925;-95
2022/01/02 04:49:08;;;;;;;;;;;;;;;;;;5023731;28;19922;-94
2022/01/02 04:51:34;;;;;;;;;;;;;;;;;;5023825;28;19921;-94
2022/01/02 04:54:00;;;;;;;;;;;;;;;;;;5025570;28;19948;-95
2022/01/02 04:56:27;;;;;;;;;;;;;;;;;;5025205;28;19928;-94
2022/01/02 04:58:53;;;;;;;;;;;;;;;;;;5025114;28;19929;-94
2022/01/02 05:01:19;;;;;;;;;;;;;;;;;;5025249;28;19929;-95
2022/01/02 05:03:46;;;;;;;;;;;;;;;;;;5025177;28;19976;-94
2022/01/02 05:06:12;;;;;;;;;;;;;;;;;;5023795;28;19921;-94
2022/01/02 05:08:42;;;;;;;;;;;;;;;;;;5024332;28;19948;-95
2022/01/02 05:11:09;;;;;;;;;;;;;;;;;;5023754;28;19975;-95
2022/01/02 05:13:35;;;;;;;;;;;;;;;;;;5024564;28;19921;-96
2022/01/02 05:16:01;;;;;;;;;;;;;;;;;;5009298;28;19921;-94
2022/01/02 05:18:27;;;;;;;;;;;;;;;;;;5025058;28;19921;-96
2022/01/02 05:20:54;;;;;;;;;;;;;;;;;;5023079;28;19945;-95
2022/01/02 05:23:21;;;;;;;;;;;;;;;;;;5024705;28;20456;-95
2022/01/02 05:25:48;;;;;;;;;;;;;;;;;;5023445;28;19976;-94
2022/01/02 05:28:14;;;;;;;;;;;;;;;;;;5022960;28;19952;-93
2022/01/02 05:30:40;;;;;;;;;;;;;;;;;;5023728;28;20576;-94
2022/01/02 05:33:07;;;;;;;;;;;;;;;;;;5023361;28;20364;-95
2022/01/02 05:35:33;;;;;;;;;;;;;;;;;;5023082;28;20294;-95
2022/01/02 05:37:59;;;;;;;;;;;;;;;;;;5023077;28;19921;-94
2022/01/02 05:40:30;;;;;;;;;;;;;;;;;;5024286;28;20388;-96
2022/01/02 05:42:56;;;;;;;;;;;;;;;;;;5023500;28;20035;-95
2022/01/02 05:45:23;;;;;;;;;;;;;;;;;;5022675;28;20105;-94
2022/01/02 05:47:49;;;;;;;;;;;;;;;;;;5023059;28;19925;-95
2022/01/02 05:50:15;;;;;;;;;;;;;;;;;;5021651;28;20463;-94
2022/01/02 05:52:41;;;;;;;;;;;;;;;;;;5021865;28;19926;-95
2022/01/02 05:55:08;;;;;;;;;;;;;;;;;;5023527;28;19921;-94
2022/01/02 05:57:34;;;;;;;;;;;;;;;;;;5024901;28;19921;-94
2022/01/02 06:00:00;;;;;;;;;;;;;;;;;;5024296;28;19992;-93
2022/01/02 06:02:26;;;;;;;;;;;;;;;;;;5024445;28;19921;-94
2022/01/02 06:04:53;;;;;;;;;;;;;;;;;;5024561;28;19921;-96
2022/01/02 06:07:19;;;;;;;;;;;;;;;;;;5024067;28;19921;-95
2022/01/02 06:09:45;;;;;;;;;;;;;;;;;;5024182;28;19922;-95
2022/01/02 06:12:11;;;;;;;;;;;;;;;;;;5023646;28;20376;-95
2022/01/02 06:14:38;;;;;;;;;;;;;;;;;;5023520;28;19976;-96
2022/01/02 06:17:04;;;;;;;;;;;;;;;;;;5022290;28;19922;-96
2022/01/02 06:19:30;;;;;;;;;;;;;;;;;;5023198;28;19925;-94
2022/01/02 06:21:56;;;;;;;;;;;;;;;;;;5023088;28;19921;-94
2022/01/02 06:24:23;;;;;;;;;;;;;;;;;;5024306;28;20428;-96
2022/01/02 06:26:49;;;;;;;;;;;;;;;;;;5024280;28;19944;-95
2022/01/02 06:29:15;;;;;;;;;;;;;;;;;;5025201;28;20298;-95
2022/01/02 06:31:42;;;;;;;;;;;;;;;;;;5024513;28;19928;-96
2022/01/02 06:34:08;;;;;;;;;;;;;;;;;;5024428;28;19921;-96
2022/01/02 06:36:34;;;;;;;;;;;;;;;;;;5014798;28;19922;-94
2022/01/02 06:39:00;;;;;;;;;;;;;;;;;;5019800;28;19948;-94
2022/01/02 06:41:27;;;;;;;;;;;;;;;;;;5023503;28;19992;-95
2022/01/02 06:43:53;;;;;;;;;;;;;;;;;;5023330;28;19925;-96
2022/01/02 06:46:20;;;;;;;;;;;;;;;;;;5021810;28;20203;-96
2022/01/02 06:48:46;;;;;;;;;;;;;;;;;;5022842;28;19921;-95
2022/01/02 06:51:12;;;;;;;;;;;;;;;;;;5023501;28;19979;-94
2022/01/02 06:53:39;;;;;;;;;;;;;;;;;;5023799;28;20329;-95
2022/01/02 06:56:05;;;;;;;;;;;;;;;;;;5023329;28;20550;-95
2022/01/02 06:58:31;;;;;;;;;;;;;;;;;;5022892;28;19925;-94
2022/01/02 07:00:57;;;;;;;;;;;;;;;;;;5022453;28;19968;-94
2022/01/02 07:03:24;;;;;;;;;;;;;;;;;;5022417;28;20000;-92
2022/01/02 07:05:50;;;;;;;;;;;;;;;;;;5023262;28;19925;-94
2022/01/02 07:08:17;;;;;;;;;;;;;;;;;;5026708;28;19925;-95
2022/01/02 07:10:43;;;;;;;;;;;;;;;;;;5023092;28;19921;-95
2022/01/02 07:13:09;;;;;;;;;;;;;;;;;;5026836;28;19952;-93
2022/01/02 07:15:35;;;;;;;;;;;;;;;;;;5027685;28;19921;-94
2022/01/02 07:18:02;;;;;;;;;;;;;;;;;;5027198;28;19925;-94
2022/01/02 07:20:28;;;;;;;;;;;;;;;;;;5025240;28;19956;-94
2022/01/02 07:22:54;;;;;;;;;;;;;;;;;;5024690;28;19922;-94
2022/01/02 07:25:21;;;;;;;;;;;;;;;;;;5027811;28;19975;-93
2022/01/02 07:27:47;;;;;;;;;;;;;;;;;;5026083;28;19921;-96
2022/01/02 07:30:13;;;;;;;;;;;;;;;;;;5026232;28;19944;-94
2022/01/02 07:32:39;;;;;;;;;;;;;;;;;;5026757;28;19952;-95
2022/01/02 07:35:06;;;;;;;;;;;;;;;;;;5026492;28;19921;-95
2022/01/02 07:37:32;;;;;;;;;;;;;;;;;;5026103;28;19952;-94
2022/01/02 07:39:59;;;;;;;;;;;;;;;;;;5026460;28;19925;-93
2022/01/02 07:42:25;;;;;;;;;;;;;;;;;;5023912;28;20015;-94
2022/01/02 07:44:51;;;;;;;;;;;;;;;;;;5026302;28;19945;-94
2022/01/02 07:47:17;;;;;;;;;;;;;;;;;;5025691;28;19952;-93
2022/01/02 07:49:44;;;;;;;;;;;;;;;;;;5025758;28;19926;-95
2022/01/02 07:52:10;;;;;;;;;;;;;;;;;;5017245;28;19922;-94
2022/01/02 07:54:37;;;;;;;;;;;;;;;;;;5013674;28;19929;-93
2022/01/02 07:57:03;;;;;;;;;;;;;;;;;;5006944;28;19925;-96
2022/01/02 07:59:30;;;;;;;;;;;;;;;;;;5003058;28;19922;-93
2022/01/02 08:01:56;;;;;;;;;;;;;;;;;;5005457;28;19922;-94
2022/01/02 08:04:22;;;;;;;;;;;;;;;;;;5024692;28;19925;-95
2022/01/02 08:06:49;;;;;;;;;;;;;;;;;;5025076;28;19922;-95
2022/01/02 08:09:15;;;;;;;;;;;;;;;;;;5024568;28;19926;-95
2022/01/02 08:11:41;;;;;;;;;;;;;;;;;;5023258;28;19944;-94
2022/01/02 08:14:07;;;;;;;;;;;;;;;;;;5024999;28;19976;-93
2022/01/02 08:16:34;;;;;;;;;;;;;;;;;;5024971;28;19928;-94
2022/01/02 08:19:00;;;;;;;;;;;;;;;;;;5023915;28;19921;-94
2022/01/02 08:21:27;;;;;;;;;;;;;;;;;;5023332;28;19921;-95
2022/01/02 08:23:53;;;;;;;;;;;;;;;;;;5023927;28;19921;-94
2022/01/02 08:26:19;;;;;;;;;;;;;;;;;;5024709;28;19921;-94
2022/01/02 08:28:45;;;;;;;;;;;;;;;;;;5024294;28;19945;-93
2022/01/02 08:31:12;;;;;;;;;;;;;;;;;;5025045;28;19921;-95
2022/01/02 08:33:38;;;;;;;;;;;;;;;;;;5036551;28;19922;-95
2022/01/02 08:36:05;;;;;;;;;;;;;;;;;;5026690;28;19952;-93
2022/01/02 08:38:31;;;;;;;;;;;;;;;;;;5025044;28;19925;-95
2022/01/02 08:40:58;;;;;;;;;;;;;;;;;;5025643;28;19921;-94
2022/01/02 08:43:24;;;;;;;;;;;;;;;;;;5025174;28;19928;-93
2022/01/02 08:45:50;;;;;;;;;;;;;;;;;;5024941;28;19922;-93
2022/01/02 08:48:16;;;;;;;;;;;;;;;;;;5025055;28;19922;-93
2022/01/02 08:50:43;;;;;;;;;;;;;;;;;;5024560;28;19925;-94
2022/01/02 08:53:09;;;;;;;;;;;;;;;;;;5027108;28;19925;-92
2022/01/02 08:55:35;;;;;;;;;;;;;;;;;;5027947;28;19921;-94
2022/01/02 08:58:01;;;;;;;;;;;;;;;;;;5021137;28;19921;-94
2022/01/02 09:00:28;;;;;;;;;;;;;;;;;;5020100;28;19921;-92
2022/01/02 09:02:54;;;;;;;;;;;;;;;;;;5022673;28;19925;-94
2022/01/02 09:05:21;;;;;;;;;;;;;;;;;;5018728;28;19922;-93
2022/01/02 09:07:48;;;;;;;;;;;;;;;;;;5019438;28;19928;-92
2022/01/02 09:10:16;;;;;;;;;;;;;;;;;;5015337;28;19921;-93
2022/01/02 09:12:42;;;;;;;;;;;;;;;;;;5020669;28;19922;-94
2022/01/02 09:15:09;;;;;;;;;;;;;;;;;;5022129;28;19921;-92
2022/01/02 09:17:35;;;;;;;;;;;;;;;;;;5024367;28;19922;-93
2022/01/02 09:20:01;;;;;;;;;;;;;;;;;;5024413;28;19925;-94
2022/01/02 09:22:27;;;;;;;;;;;;;;;;;;5024541;28;19921;-94
2022/01/02 09:24:54;;;;;;;;;;;;;;;;;;5023143;28;19979;-93
2022/01/02 09:27:20;;;;;;;;;;;;;;;;;;5020383;28;19921;-94
2022/01/02 09:29:46;;;;;;;;;;;;;;;;;;5016533;28;19921;-94
2022/01/02 09:32:13;;;;;;;;;;;;;;;;;;5016282;28;20584;-92
2022/01/02 09:34:39;;;;;;;;;;;;;;;;;;5015619;28;19929;-92
2022/01/02 09:37:05;;;;;;;;;;;;;;;;;;5015720;28;19979;-93
2022/01/02 09:39:31;;;;;;;;;;;;;;;;;;5000211;28;19921;-91
2022/01/02 09:41:58;;;;;;;;;;;;;;;;;;4997738;28;19947;-93
2022/01/02 09:44:24;;;;;;;;;;;;;;;;;;5015744;28;19921;-94
2022/01/02 09:46:50;;;;;;;;;;;;;;;;;;5020702;28;19921;-93
2022/01/02 09:49:17;;;;;;;;;;;;;;;;;;5021072;28;19921;-95
2022/01/02 09:51:43;;;;;;;;;;;;;;;;;;5024118;28;19921;-93
2022/01/02 09:54:09;;;;;;;;;;;;;;;;;;5023657;28;19989;-95
2022/01/02 09:56:35;;;;;;;;;;;;;;;;;;5024163;28;19925;-94
2022/01/02 09:59:02;;;;;;;;;;;;;;;;;;5023861;28;19973;-95
2022/01/02 10:01:29;;;;;;;;;;;;;;;;;;5023703;28;19963;-93
2022/01/02 10:03:57;;;;;;;;;;;;;;;;;;5023339;28;19929;-95
2022/01/02 10:06:23;;;;;;;;;;;;;;;;;;5023998;28;19921;-94
2022/01/02 10:08:50;;;;;;;;;;;;;;;;;;5023569;28;19922;-94
2022/01/02 10:11:19;;;;;;;;;;;;;;;;;;5021646;28;19928;-93
2022/01/02 10:13:46;;;;;;;;;;;;;;;;;;5022196;28;19956;-94
2022/01/02 10:16:12;;;;;;;;;;;;;;;;;;5024497;28;19921;-94
2022/01/02 10:18:38;;;;;;;;;;;;;;;;;;5024129;28;19945;-95
2022/01/02 10:21:04;;;;;;;;;;;;;;;;;;5024009;28;19921;-94
2022/01/02 10:23:31;;;;;;;;;;;;;;;;;;5024693;28;19925;-96
2022/01/02 10:25:57;;;;;;;;;;;;;;;;;;5023976;28;19980;-93
2022/01/02 10:28:25;;;;;;;;;;;;;;;;;;5024013;28;19925;-93
2022/01/02 10:30:52;;;;;;;;;;;;;;;;;;5024138;28;19921;-94
2022/01/02 10:33:18;;;;;;;;;;;;;;;;;;5024099;28;19922;-93
2022/01/02 10:35:44;;;;;;;;;;;;;;;;;;5021164;28;19925;-93
2022/01/02 10:38:11;;;;;;;;;;;;;;;;;;5021659;28;19921;-95
2022/01/02 10:40:38;;;;;;;;;;;;;;;;;;5024013;28;20236;-93
2022/01/02 10:43:04;;;;;;;;;;;;;;;;;;5024465;28;19925;-94
2022/01/02 10:45:31;;;;;;;;;;;;;;;;;;5022146;28;19925;-92
2022/01/02 10:47:57;;;;;;;;;;;;;;;;;;5022595;28;19956;-92
2022/01/02 10:50:24;;;;;;;;;;;;;;;;;;5022986;28;19952;-93
2022/01/02 10:52:50;;;;;;;;;;;;;;;;;;5021503;28;19945;-93
2022/01/02 10:55:16;;;;;;;;;;;;;;;;;;5022426;28;19921;-93
2022/01/02 10:57:43;;;;;;;;;;;;;;;;;;5022321;28;19921;-92
2022/01/02 11:00:09;;;;;;;;;;;;;;;;;;5023396;28;19921;-92
2022/01/02 11:02:35;;;;;;;;;;;;;;;;;;5023648;28;19960;-92
2022/01/02 11:05:02;;;;;;;;;;;;;;;;;;5023310;28;19944;-93
2022/01/02 11:07:28;;;;;;;;;;;;;;;;;;5023309;28;19921;-92
2022/01/02 11:09:54;;;;;;;;;;;;;;;;;;5023751;28;19921;-93
2022/01/02 11:12:20;;;;;;;;;;;;;;;;;;5023332;28;19925;-93
2022/01/02 11:14:46;;;;;;;;;;;;;;;;;;5023618;28;19921;-92
2022/01/02 11:17:13;;;;;;;;;;;;;;;;;;5018196;28;19922;-96
2022/01/02 11:19:39;;;;;;;;;;;;;;;;;;5013738;28;20573;-95
2022/01/02 11:22:05;;;;;;;;;;;;;;;;;;5022799;28;19926;-93
2022/01/02 11:24:31;;;;;;;;;;;;;;;;;;5022248;28;19925;-93
2022/01/02 11:26:58;;;;;;;;;;;;;;;;;;5022004;28;19922;-95
2022/01/02 11:29:24;;;;;;;;;;;;;;;;;;5021855;28;19925;-93
2022/01/02 11:31:50;;;;;;;;;;;;;;;;;;5022476;28;19921;-93
2022/01/02 11:34:17;;;;;;;;;;;;;;;;;;5025890;28;19929;-94
2022/01/02 11:36:43;;;;;;;;;;;;;;;;;;5022885;28;19929;-95
2022/01/02 11:39:09;;;;;;;;;;;;;;;;;;5022814;28;19928;-92
2022/01/02 11:41:35;;;;;;;;;;;;;;;;;;5022418;28;19921;-95
2022/01/02 11:44:02;;;;;;;;;;;;;;;;;;5022250;28;19975;-93
2022/01/02 11:46:28;;;;;;;;;;;;;;;;;;5021011;28;19976;-93
2022/01/02 11:48:54;;;;;;;;;;;;;;;;;;5020641;28;19929;-92
2022/01/02 11:51:20;;;;;;;;;;;;;;;;;;5021859;28;19945;-95
2022/01/02 11:53:47;;;;;;;;;;;;;;;;;;5022521;28;19922;-92
2022/01/02 11:56:13;;;;;;;;;;;;;;;;;;5027210;28;19921;-94
2022/01/02 11:58:39;;;;;;;;;;;;;;;;;;5028923;28;19921;-95
2022/01/02 12:01:06;;;;;;;;;;;;;;;;;;5025846;28;19932;-95
2022/01/02 12:03:32;;;;;;;;;;;;;;;;;;5034374;28;19922;-94
2022/01/02 12:05:58;;;;;;;;;;;;;;;;;;5023627;28;19921;-93
2022/01/02 12:08:25;;;;;;;;;;;;;;;;;;5026800;28;19985;-93
2022/01/02 12:10:51;;;;;;;;;;;;;;;;;;5028104;28;19921;-94
2022/01/02 12:13:20;;;;;;;;;;;;;;;;;;5026335;28;19929;-94
2022/01/02 12:15:46;;;;;;;;;;;;;;;;;;5032432;28;19928;-94
2022/01/02 12:18:12;;;;;;;;;;;;;;;;;;5026868;28;19929;-95
2022/01/02 12:20:39;;;;;;;;;;;;;;;;;;5026322;28;19922;-95
2022/01/02 12:23:05;;;;;;;;;;;;;;;;;;5026648;28;19922;-95
2022/01/02 12:25:31;;;;;;;;;;;;;;;;;;5024506;28;19945;-95
2022/01/02 12:27:58;;;;;;;;;;;;;;;;;;5025494;28;19921;-95
2022/01/02 12:30:24;;;;;;;;;;;;;;;;;;5025181;28;19928;-95
2022/01/02 12:32:51;;;;;;;;;;;;;;;;;;5030339;28;19954;-93
2022/01/02 12:35:19;;;;;;;;;;;;;;;;;;5023172;28;19944;-94
2022/01/02 12:37:46;;;;;;;;;;;;;;;;;;5010391;28;19929;-95
2022/01/02 12:40:12;;;;;;;;;;;;;;;;;;5016436;28;19922;-93
2022/01/02 12:42:38;;;;;;;;;;;;;;;;;;5024164;28;19922;-94
2022/01/02 12:45:06;;;;;;;;;;;;;;;;;;5023923;28;19922;-94
2022/01/02 12:47:32;;;;;;;;;;;;;;;;;;5023930;28;19929;-96
2022/01/02 12:49:58;;;;;;;;;;;;;;;;;;5024342;28;19937;-95
2022/01/02 12:52:25;;;;;;;;;;;;;;;;;;5024581;28;19971;-94
2022/01/02 12:54:51;;;;;;;;;;;;;;;;;;5020317;28;19961;-94
2022/01/02 12:57:17;;;;;;;;;;;;;;;;;;5017208;28;19972;-94
2022/01/02 12:59:45;;;;;;;;;;;;;;;;;;5017251;28;19968;-93
2022/01/02 13:02:11;;;;;;;;;;;;;;;;;;5019753;28;19933;-94
2022/01/02 13:04:37;;;;;;;;;;;;;;;;;;5015806;28;19921;-95
2022/01/02 13:07:04;;;;;;;;;;;;;;;;;;5018097;28;20661;-93
2022/01/02 13:09:30;;;;;;;;;;;;;;;;;;5016850;28;19932;-94
2022/01/02 13:11:57;;;;;;;;;;;;;;;;;;5016825;28;19925;-95
2022/01/02 13:14:23;;;;;;;;;;;;;;;;;;5021353;28;20648;-95
2022/01/02 13:16:49;;;;;;;;;;;;;;;;;;5014901;28;20888;-96
2022/01/02 13:19:16;;;;;;;;;;;;;;;;;;5015013;28;19925;-94
2022/01/02 13:21:42;;;;;;;;;;;;;;;;;;5017609;28;19933;-94
2022/01/02 13:24:08;;;;;;;;;;;;;;;;;;5022519;28;19921;-96
2022/01/02 13:26:35;;;;;;;;;;;;;;;;;;5026072;28;20262;-94
2022/01/02 13:29:01;;;;;;;;;;;;;;;;;;5026240;28;19928;-94
2022/01/02 13:31:27;;;;;;;;;;;;;;;;;;5025226;28;19929;-94
2022/01/02 13:33:54;;;;;;;;;;;;;;;;;;5025513;28;19992;-95
2022/01/02 13:36:20;;;;;;;;;;;;;;;;;;5023885;28;19921;-93
2022/01/02 13:38:46;;;;;;;;;;;;;;;;;;5024718;28;19921;-92
2022/01/02 13:41:13;;;;;;;;;;;;;;;;;;5018996;28;19921;-92
2022/01/02 13:43:39;;;;;;;;;;;;;;;;;;5005552;28;19922;-93
2022/01/02 13:46:05;;;;;;;;;;;;;;;;;;5018906;28;19925;-93
2022/01/02 13:48:32;;;;;;;;;;;;;;;;;;5023842;28;19921;-93
2022/01/02 13:50:59;;;;;;;;;;;;;;;;;;5023499;28;19976;-95
2022/01/02 13:53:25;;;;;;;;;;;;;;;;;;5023721;28;19921;-94
2022/01/02 13:55:51;;;;;;;;;;;;;;;;;;5025507;28;19965;-94
2022/01/02 13:58:18;;;;;;;;;;;;;;;;;;5027980;28;19925;-94
2022/01/02 14:00:44;;;;;;;;;;;;;;;;;;5025102;28;19926;-92
2022/01/02 14:03:10;;;;;;;;;;;;;;;;;;5024918;28;20026;-94
2022/01/02 14:05:36;;;;;;;;;;;;;;;;;;5023658;28;19983;-93
2022/01/02 14:08:03;;;;;;;;;;;;;;;;;;5024355;28;19921;-94
2022/01/02 14:10:29;;;;;;;;;;;;;;;;;;5023474;28;19922;-95
2022/01/02 14:15:35;;;;;;;;;;;;;;;;;;5024729;28;19949;-94
2022/01/02 14:18:01;;;;;;;;;;;;;;;;;;5023819;28;19921;-94
2022/01/02 14:20:34;;;;;;;;;;;;;;;;;;5022117;28;19929;-94
2022/01/02 14:23:31;;;;;;;;;;;;;;;;;;5090304;27;2019886;-94
2022/01/02 14:25:58;;;;;;;;;;;;;;;;;;5147465;27;19924;-95
2022/01/02 14:28:24;;;;;;;;;;;;;;;;;;5139829;28;19952;-96
2022/01/02 14:30:50;;;;;;;;;;;;;;;;;;5138798;27;19945;-96
2022/01/02 14:33:16;;;;;;;;;;;;;;;;;;5134025;28;20395;-96
2022/01/02 14:35:43;;;;;;;;;;;;;;;;;;5139721;27;20283;-96
2022/01/02 14:38:09;;;;;;;;;;;;;;;;;;5134278;28;19976;-95
2022/01/02 14:40:35;;;;;;;;;;;;;;;;;;5134092;27;19924;-95
2022/01/02 14:43:01;;;;;;;;;;;;;;;;;;5136061;28;19927;-95
2022/01/02 14:45:27;;;;;;;;;;;;;;;;;;5137861;27;19969;-95
2022/01/02 14:47:55;;;;;;;;;;;;;;;;;;5135537;27;19923;-95
2022/01/02 14:50:21;;;;;;;;;;;;;;;;;;5143159;27;19923;-95
2022/01/02 14:52:47;;;;;;;;;;;;;;;;;;5161873;27;19923;-96
2022/01/02 14:55:13;;;;;;;;;;;;;;;;;;5160263;27;19923;-95
2022/01/02 14:57:40;;;;;;;;;;;;;;;;;;5161845;27;20268;-96
2022/01/02 15:00:06;;;;;;;;;;;;;;;;;;5159953;27;19979;-95
2022/01/02 15:15:55;;;;;;;;;;;;;;;;;;5387200;22;19931;-96
2022/01/02 15:18:22;;;;;;;;;;;;;;;;;;5074817;28;19924;-91
2022/01/02 15:20:48;;;;;;;;;;;;;;;;;;5075939;28;19955;-93
2022/01/02 15:23:14;;;;;;;;;;;;;;;;;;5078019;28;19932;-91
2022/01/02 15:25:40;;;;;;;;;;;;;;;;;;5072864;28;19925;-95
2022/01/02 15:28:07;;;;;;;;;;;;;;;;;;5062590;28;19925;-95
2022/01/02 15:30:33;;;;;;;;;;;;;;;;;;5066923;28;19925;-96
2022/01/02 15:33:01;;;;;;;;;;;;;;;;;;5062106;28;19952;-91
2022/01/02 15:35:27;;;;;;;;;;;;;;;;;;5045114;28;20319;-93
2022/01/02 15:37:54;;;;;;;;;;;;;;;;;;5058620;28;19925;-93
2022/01/02 15:40:20;;;;;;;;;;;;;;;;;;5059399;28;19972;-91
2022/01/02 15:42:54;;;;;;;;;;;;;;;;;;5059487;28;20028;-96
2022/01/02 15:45:20;;;;;;;;;;;;;;;;;;5054971;28;19924;-95
2022/01/02 15:47:49;;;;;;;;;;;;;;;;;;5049812;28;19947;-95
2022/01/02 15:50:15;;;;;;;;;;;;;;;;;;5053238;28;19947;-96
2022/01/02 15:52:41;;;;;;;;;;;;;;;;;;5057915;28;19966;-96
2022/01/02 15:55:07;;;;;;;;;;;;;;;;;;5059340;28;19929;-92
2022/01/02 15:57:34;;;;;;;;;;;;;;;;;;5056897;28;19952;-92
2022/01/02 16:00:00;;;;;;;;;;;;;;;;;;5058339;28;19928;-96
2022/01/02 16:02:26;;;;;;;;;;;;;;;;;;5056735;28;19939;-94
2022/01/02 16:04:52;;;;;;;;;;;;;;;;;;5061147;28;19978;-94
2022/01/02 16:07:19;;;;;;;;;;;;;;;;;;5062679;28;19929;-96
2022/01/02 16:09:45;;;;;;;;;;;;;;;;;;5063399;28;20356;-93
2022/01/02 16:12:11;;;;;;;;;;;;;;;;;;5058183;28;20519;-93
2022/01/02 16:14:37;;;;;;;;;;;;;;;;;;5058019;28;20465;-94
2022/01/02 16:17:04;;;;;;;;;;;;;;;;;;5062816;28;19924;-94
2022/01/02 16:19:30;;;;;;;;;;;;;;;;;;5063078;28;19928;-94
2022/01/02 16:21:58;;;;;;;;;;;;;;;;;;5062670;28;19928;-93
2022/01/02 16:24:25;;;;;;;;;;;;;;;;;;5063380;28;19932;-93
2022/01/02 16:26:52;;;;;;;;;;;;;;;;;;5060255;28;19933;-93
2022/01/02 16:29:18;;;;;;;;;;;;;;;;;;5063461;28;19929;-94
2022/01/02 16:31:44;;;;;;;;;;;;;;;;;;5062552;28;19925;-93
2022/01/02 16:34:10;;;;;;;;;;;;;;;;;;5063292;28;19924;-94
2022/01/02 16:36:37;;;;;;;;;;;;;;;;;;5063063;28;19948;-96
2022/01/02 16:39:04;;;;;;;;;;;;;;;;;;5063411;28;19925;-94
2022/01/02 16:41:30;;;;;;;;;;;;;;;;;;5061442;28;19967;-95
2022/01/02 16:43:57;;;;;;;;;;;;;;;;;;5061846;28;19925;-94
2022/01/02 16:46:23;;;;;;;;;;;;;;;;;;5061424;28;19951;-93
2022/01/02 16:48:49;;;;;;;;;;;;;;;;;;5062850;28;20474;-94
2022/01/02 16:51:15;;;;;;;;;;;;;;;;;;5063152;28;20424;-94
2022/01/02 16:53:42;;;;;;;;;;;;;;;;;;5064639;28;20509;-93
2022/01/02 16:56:08;;;;;;;;;;;;;;;;;;5063518;28;20342;-95
2022/01/02 16:58:34;;;;;;;;;;;;;;;;;;5063417;28;19993;-95
2022/01/02 17:01:00;;;;;;;;;;;;;;;;;;5063875;28;19978;-95